createdAt,value
2023-02-23T00:00:11.957Z,998.03
2023-02-23T00:01:11.942Z,998.05
2023-02-23T00:02:11.923Z,998.05
2023-02-23T00:03:12.004Z,998.02
2023-02-23T00:04:11.905Z,998.10
2023-02-23T00:05:11.894Z,998.08
2023-02-23T00:06:11.871Z,998.10
2023-02-23T00:07:11.860Z,998.09
2023-02-23T00:08:11.850Z,998.09
2023-02-23T00:09:11.833Z,998.05
2023-02-23T00:10:11.824Z,998.05
2023-02-23T00:11:11.811Z,998.01
2023-02-23T00:12:11.805Z,998.06
2023-02-23T00:13:11.804Z,998.08
2023-02-23T00:14:11.760Z,998.11
2023-02-23T00:15:11.749Z,998.08
2023-02-23T00:16:11.755Z,998.09
2023-02-23T00:17:11.740Z,998.11
2023-02-23T00:18:11.714Z,998.08
2023-02-23T00:19:11.748Z,998.04
2023-02-23T00:20:11.695Z,998.07
2023-02-23T00:21:11.681Z,998.06
2023-02-23T00:22:11.668Z,998.04
2023-02-23T00:23:11.667Z,998.02
2023-02-23T00:24:11.653Z,998.04
2023-02-23T00:25:11.630Z,997.98
2023-02-23T00:26:11.606Z,998.04
2023-02-23T00:27:11.618Z,998.08
2023-02-23T00:28:11.588Z,998.04
2023-02-23T00:29:11.587Z,998.01
2023-02-23T00:30:11.563Z,998.00
2023-02-23T00:31:11.602Z,998.02
2023-02-23T00:32:11.639Z,998.01
2023-02-23T00:33:11.535Z,998.01
2023-02-23T00:34:11.546Z,998.01
2023-02-23T00:35:11.511Z,998.03
2023-02-23T00:36:11.502Z,998.02
2023-02-23T00:37:11.482Z,998.03
2023-02-23T00:38:11.465Z,998.07
2023-02-23T00:39:11.471Z,998.10
2023-02-23T00:40:11.434Z,998.09
2023-02-23T00:41:13.540Z,998.08
2023-02-23T00:42:11.409Z,998.10
2023-02-23T00:43:11.408Z,998.11
2023-02-23T00:44:11.404Z,998.14
2023-02-23T00:45:11.371Z,998.14
2023-02-23T00:46:11.377Z,998.15
2023-02-23T00:47:11.358Z,998.17
2023-02-23T00:48:11.339Z,998.16
2023-02-23T00:49:11.350Z,998.19
2023-02-23T00:50:11.300Z,998.21
2023-02-23T00:51:11.293Z,998.22
2023-02-23T00:52:11.279Z,998.18
2023-02-23T00:53:11.655Z,998.17
2023-02-23T00:54:11.279Z,998.19
2023-02-23T00:55:11.240Z,998.16
2023-02-23T00:56:11.228Z,998.17
2023-02-23T00:57:11.224Z,998.12
2023-02-23T00:58:11.200Z,998.13
2023-02-23T00:59:11.208Z,998.13
2023-02-23T01:00:11.173Z,998.10
2023-02-23T01:01:11.242Z,998.15
2023-02-23T01:02:11.189Z,998.13
2023-02-23T01:03:11.137Z,998.16
2023-02-23T01:04:11.143Z,998.19
2023-02-23T01:05:11.131Z,998.16
2023-02-23T01:06:11.105Z,998.12
2023-02-23T01:07:11.076Z,998.15
2023-02-23T01:08:11.063Z,998.12
2023-02-23T01:09:11.084Z,998.17
2023-02-23T01:10:11.048Z,998.10
2023-02-23T01:11:11.031Z,998.15
2023-02-23T01:12:11.022Z,998.16
2023-02-23T01:13:10.990Z,998.19
2023-02-23T01:14:11.027Z,998.12
2023-02-23T01:15:10.971Z,998.18
2023-02-23T01:16:10.970Z,998.16
2023-02-23T01:17:10.959Z,998.12
2023-02-23T01:18:10.941Z,998.14
2023-02-23T01:19:10.949Z,998.14
2023-02-23T01:20:10.916Z,998.16
2023-02-23T01:21:10.918Z,998.16
2023-02-23T01:22:10.888Z,998.20
2023-02-23T01:23:10.880Z,998.20
2023-02-23T01:24:10.876Z,998.17
2023-02-23T01:25:10.848Z,998.21
2023-02-23T01:26:10.838Z,998.18
2023-02-23T01:27:10.820Z,998.14
2023-02-23T01:28:10.813Z,998.14
2023-02-23T01:29:10.836Z,998.13
2023-02-23T01:30:10.784Z,998.15
2023-02-23T01:31:10.882Z,998.11
2023-02-23T01:32:10.850Z,998.07
2023-02-23T01:33:10.737Z,998.12
2023-02-23T01:34:10.746Z,998.04
2023-02-23T01:35:10.707Z,998.03
2023-02-23T01:36:10.699Z,998.03
2023-02-23T01:37:10.683Z,998.03
2023-02-23T01:38:10.672Z,998.00
2023-02-23T01:39:10.692Z,997.99
2023-02-23T01:40:10.642Z,998.01
2023-02-23T01:41:10.624Z,998.02
2023-02-23T01:42:10.613Z,998.04
2023-02-23T01:43:10.604Z,998.01
2023-02-23T01:44:10.612Z,997.98
2023-02-23T01:45:10.573Z,997.98
2023-02-23T01:46:10.629Z,997.92
2023-02-23T01:47:10.555Z,997.91
2023-02-23T01:48:10.563Z,997.89
2023-02-23T01:49:10.540Z,997.91
2023-02-23T01:50:10.512Z,997.86
2023-02-23T01:51:10.509Z,997.89
2023-02-23T01:52:10.503Z,997.83
2023-02-23T01:53:10.485Z,997.85
2023-02-23T01:54:10.483Z,997.79
2023-02-23T01:55:10.450Z,997.79
2023-02-23T01:56:10.444Z,997.76
2023-02-23T01:57:10.454Z,997.75
2023-02-23T01:58:10.412Z,997.70
2023-02-23T01:59:10.403Z,997.65
2023-02-23T02:00:10.392Z,997.63
2023-02-23T02:01:10.404Z,997.61
2023-02-23T02:02:10.350Z,997.58
2023-02-23T02:03:10.352Z,997.57
2023-02-23T02:04:10.384Z,997.58
2023-02-23T02:05:10.322Z,997.58
2023-02-23T02:06:10.311Z,997.56
2023-02-23T02:07:10.288Z,997.54
2023-02-23T02:08:10.280Z,997.52
2023-02-23T02:09:10.297Z,997.55
2023-02-23T02:10:10.261Z,997.55
2023-02-23T02:11:10.228Z,997.57
2023-02-23T02:12:10.231Z,997.56
2023-02-23T02:13:10.208Z,997.45
2023-02-23T02:14:10.209Z,997.54
2023-02-23T02:15:10.194Z,997.53
2023-02-23T02:16:10.212Z,997.53
2023-02-23T02:17:10.160Z,997.50
2023-02-23T02:18:10.159Z,997.49
2023-02-23T02:19:10.130Z,997.51
2023-02-23T02:20:10.149Z,997.47
2023-02-23T02:21:10.154Z,997.46
2023-02-23T02:22:10.100Z,997.44
2023-02-23T02:23:10.081Z,997.46
2023-02-23T02:24:10.068Z,997.46
2023-02-23T02:25:10.130Z,997.46
2023-02-23T02:26:10.068Z,997.48
2023-02-23T02:27:10.024Z,997.47
2023-02-23T02:28:10.019Z,997.46
2023-02-23T02:29:10.007Z,997.47
2023-02-23T02:30:10.013Z,997.43
2023-02-23T02:31:10.016Z,997.37
2023-02-23T02:32:10.003Z,997.40
2023-02-23T02:33:09.949Z,997.41
2023-02-23T02:34:09.936Z,997.42
2023-02-23T02:35:09.936Z,997.45
2023-02-23T02:36:09.913Z,997.39
2023-02-23T02:37:09.890Z,997.45
2023-02-23T02:38:09.884Z,997.42
2023-02-23T02:39:09.872Z,997.45
2023-02-23T02:40:09.864Z,997.41
2023-02-23T02:41:09.834Z,997.47
2023-02-23T02:42:09.833Z,997.43
2023-02-23T02:43:09.819Z,997.40
2023-02-23T02:44:09.803Z,997.42
2023-02-23T02:45:09.802Z,997.47
2023-02-23T02:46:10.007Z,997.46
2023-02-23T02:47:09.765Z,997.41
2023-02-23T02:48:09.768Z,997.45
2023-02-23T02:49:09.745Z,997.45
2023-02-23T02:50:09.744Z,997.43
2023-02-23T02:51:09.727Z,997.42
2023-02-23T02:52:09.713Z,997.40
2023-02-23T02:53:09.699Z,997.45
2023-02-23T02:54:09.676Z,997.44
2023-02-23T02:55:09.675Z,997.38
2023-02-23T02:56:09.665Z,997.43
2023-02-23T02:57:09.634Z,997.44
2023-02-23T02:58:09.624Z,997.43
2023-02-23T02:59:09.616Z,997.38
2023-02-23T03:00:09.628Z,997.41
2023-02-23T03:01:09.632Z,997.43
2023-02-23T03:02:09.574Z,997.37
2023-02-23T03:03:09.553Z,997.39
2023-02-23T03:04:09.558Z,997.37
2023-02-23T03:05:09.560Z,997.38
2023-02-23T03:06:09.528Z,997.36
2023-02-23T03:07:09.507Z,997.42
2023-02-23T03:08:09.549Z,997.37
2023-02-23T03:09:09.483Z,997.32
2023-02-23T03:10:09.490Z,997.34
2023-02-23T03:11:09.455Z,997.37
2023-02-23T03:12:09.457Z,997.39
2023-02-23T03:13:09.424Z,997.37
2023-02-23T03:14:09.428Z,997.41
2023-02-23T03:15:09.403Z,997.42
2023-02-23T03:16:09.485Z,997.38
2023-02-23T03:17:09.388Z,997.43
2023-02-23T03:18:09.627Z,997.41
2023-02-23T03:19:09.352Z,997.43
2023-02-23T03:20:09.350Z,997.41
2023-02-23T03:21:09.337Z,997.37
2023-02-23T03:22:09.311Z,997.39
2023-02-23T03:23:09.302Z,997.40
2023-02-23T03:24:09.282Z,997.41
2023-02-23T03:25:09.492Z,997.42
2023-02-23T03:26:09.293Z,997.40
2023-02-23T03:27:09.250Z,997.42
2023-02-23T03:28:09.242Z,997.45
2023-02-23T03:29:09.222Z,997.44
2023-02-23T03:30:09.211Z,997.41
2023-02-23T03:31:09.209Z,997.40
2023-02-23T03:32:09.392Z,997.43
2023-02-23T03:33:09.176Z,997.44
2023-02-23T03:34:09.172Z,997.46
2023-02-23T03:35:09.141Z,997.49
2023-02-23T03:36:09.148Z,997.52
2023-02-23T03:37:09.127Z,997.49
2023-02-23T03:38:09.111Z,997.55
2023-02-23T03:39:09.090Z,997.46
2023-02-23T03:40:09.078Z,997.47
2023-02-23T03:41:09.082Z,997.48
2023-02-23T03:42:09.065Z,997.51
2023-02-23T03:43:09.037Z,997.52
2023-02-23T03:44:09.040Z,997.48
2023-02-23T03:45:09.092Z,997.47
2023-02-23T03:46:09.008Z,997.52
2023-02-23T03:47:08.991Z,997.51
2023-02-23T03:48:08.991Z,997.50
2023-02-23T03:49:08.959Z,997.50
2023-02-23T03:50:08.959Z,997.53
2023-02-23T03:51:08.938Z,997.54
2023-02-23T03:52:08.932Z,997.53
2023-02-23T03:53:08.922Z,997.49
2023-02-23T03:54:08.905Z,997.52
2023-02-23T03:55:08.875Z,997.53
2023-02-23T03:56:08.887Z,997.47
2023-02-23T03:57:08.919Z,997.49
2023-02-23T03:58:08.849Z,997.50
2023-02-23T03:59:08.840Z,997.50
2023-02-23T04:00:08.823Z,997.54
2023-02-23T04:01:08.821Z,997.50
2023-02-23T04:02:08.825Z,997.50
2023-02-23T04:03:08.773Z,997.54
2023-02-23T04:04:08.833Z,997.51
2023-02-23T04:05:08.762Z,997.49
2023-02-23T04:06:08.759Z,997.49
2023-02-23T04:07:08.720Z,997.48
2023-02-23T04:08:08.723Z,997.50
2023-02-23T04:09:08.700Z,997.47
2023-02-23T04:10:08.693Z,997.51
2023-02-23T04:11:08.696Z,997.48
2023-02-23T04:12:08.680Z,997.50
2023-02-23T04:13:08.638Z,997.50
2023-02-23T04:14:08.644Z,997.47
2023-02-23T04:15:08.631Z,997.53
2023-02-23T04:16:08.679Z,997.51
2023-02-23T04:17:08.596Z,997.51
2023-02-23T04:18:08.590Z,997.53
2023-02-23T04:19:08.581Z,997.54
2023-02-23T04:20:08.577Z,997.57
2023-02-23T04:21:08.601Z,997.53
2023-02-23T04:22:08.536Z,997.59
2023-02-23T04:23:08.525Z,997.60
2023-02-23T04:24:08.507Z,997.62
2023-02-23T04:25:08.508Z,997.65
2023-02-23T04:26:08.489Z,997.66
2023-02-23T04:27:08.460Z,997.71
2023-02-23T04:28:08.472Z,997.68
2023-02-23T04:29:08.460Z,997.68
2023-02-23T04:30:08.430Z,997.68
2023-02-23T04:31:08.427Z,997.71
2023-02-23T04:32:08.467Z,997.65
2023-02-23T04:33:08.417Z,997.70
2023-02-23T04:34:08.388Z,997.71
2023-02-23T04:35:08.367Z,997.70
2023-02-23T04:36:08.378Z,997.70
2023-02-23T04:37:08.341Z,997.65
2023-02-23T04:38:08.330Z,997.66
2023-02-23T04:39:08.344Z,997.64
2023-02-23T04:40:08.351Z,997.65
2023-02-23T04:41:08.290Z,997.65
2023-02-23T04:42:08.288Z,997.64
2023-02-23T04:43:08.257Z,997.62
2023-02-23T04:44:08.248Z,997.59
2023-02-23T04:45:08.249Z,997.63
2023-02-23T04:46:08.262Z,997.61
2023-02-23T04:47:08.222Z,997.62
2023-02-23T04:48:08.198Z,997.60
2023-02-23T04:49:08.178Z,997.57
2023-02-23T04:50:08.167Z,997.57
2023-02-23T04:51:08.167Z,997.62
2023-02-23T04:52:08.170Z,997.61
2023-02-23T04:53:08.145Z,997.61
2023-02-23T04:54:08.128Z,997.61
2023-02-23T04:55:08.117Z,997.59
2023-02-23T04:56:08.100Z,997.64
2023-02-23T04:57:08.085Z,997.59
2023-02-23T04:58:08.095Z,997.63
2023-02-23T04:59:08.061Z,997.56
2023-02-23T05:00:08.052Z,997.62
2023-02-23T05:01:08.102Z,997.63
2023-02-23T05:02:08.025Z,997.64
2023-02-23T05:03:08.013Z,997.62
2023-02-23T05:04:07.996Z,997.63
2023-02-23T05:05:08.075Z,997.56
2023-02-23T05:06:07.985Z,997.64
2023-02-23T05:07:07.968Z,997.65
2023-02-23T05:08:07.940Z,997.61
2023-02-23T05:09:07.932Z,997.63
2023-02-23T05:10:07.918Z,997.61
2023-02-23T05:11:07.895Z,997.66
2023-02-23T05:12:07.915Z,997.67
2023-02-23T05:13:07.879Z,997.70
2023-02-23T05:14:07.863Z,997.69
2023-02-23T05:15:07.862Z,997.69
2023-02-23T05:16:07.872Z,997.67
2023-02-23T05:17:08.811Z,997.62
2023-02-23T05:18:07.816Z,997.65
2023-02-23T05:19:07.792Z,997.65
2023-02-23T05:20:07.880Z,997.65
2023-02-23T05:21:07.784Z,997.64
2023-02-23T05:22:07.765Z,997.67
2023-02-23T05:23:07.752Z,997.63
2023-02-23T05:24:07.737Z,997.63
2023-02-23T05:25:07.724Z,997.62
2023-02-23T05:26:07.719Z,997.63
2023-02-23T05:27:07.724Z,997.63
2023-02-23T05:28:07.684Z,997.61
2023-02-23T05:29:07.724Z,997.63
2023-02-23T05:30:07.686Z,997.54
2023-02-23T05:31:07.773Z,997.59
2023-02-23T05:32:07.731Z,997.61
2023-02-23T05:33:07.621Z,997.62
2023-02-23T05:34:07.610Z,997.57
2023-02-23T05:35:07.621Z,997.59
2023-02-23T05:36:07.581Z,997.63
2023-02-23T05:37:07.578Z,997.59
2023-02-23T05:38:07.566Z,997.60
2023-02-23T05:39:07.588Z,997.60
2023-02-23T05:40:07.532Z,997.59
2023-02-23T05:41:07.522Z,997.62
2023-02-23T05:42:07.529Z,997.65
2023-02-23T05:43:07.524Z,997.64
2023-02-23T05:44:07.468Z,997.62
2023-02-23T05:45:07.467Z,997.66
2023-02-23T05:46:07.454Z,997.62
2023-02-23T05:47:07.465Z,997.62
2023-02-23T05:48:07.418Z,997.66
2023-02-23T05:49:07.423Z,997.65
2023-02-23T05:50:07.423Z,997.67
2023-02-23T05:51:07.391Z,997.68
2023-02-23T05:52:07.365Z,997.64
2023-02-23T05:53:07.371Z,997.63
2023-02-23T05:54:07.353Z,997.65
2023-02-23T05:55:07.332Z,997.62
2023-02-23T05:56:07.318Z,997.66
2023-02-23T05:57:07.303Z,997.70
2023-02-23T05:58:07.305Z,997.69
2023-02-23T05:59:07.274Z,997.73
2023-02-23T06:00:07.274Z,997.69
2023-02-23T06:01:07.278Z,997.70
2023-02-23T06:02:07.242Z,997.68
2023-02-23T06:03:07.280Z,997.71
2023-02-23T06:04:07.311Z,997.70
2023-02-23T06:05:07.214Z,997.74
2023-02-23T06:06:07.182Z,997.71
2023-02-23T06:07:07.213Z,997.74
2023-02-23T06:08:07.176Z,997.73
2023-02-23T06:09:07.152Z,997.73
2023-02-23T06:10:07.137Z,997.68
2023-02-23T06:11:07.125Z,997.69
2023-02-23T06:12:07.118Z,997.73
2023-02-23T06:13:07.120Z,997.73
2023-02-23T06:14:07.087Z,997.72
2023-02-23T06:15:07.074Z,997.73
2023-02-23T06:16:07.187Z,997.72
2023-02-23T06:17:07.110Z,997.75
2023-02-23T06:18:07.042Z,997.79
2023-02-23T06:19:07.030Z,997.79
2023-02-23T06:20:07.002Z,997.83
2023-02-23T06:21:07.024Z,997.80
2023-02-23T06:22:06.991Z,997.82
2023-02-23T06:23:06.999Z,997.82
2023-02-23T06:24:06.961Z,997.80
2023-02-23T06:25:06.968Z,997.87
2023-02-23T06:26:06.961Z,997.82
2023-02-23T06:27:06.997Z,997.84
2023-02-23T06:28:06.916Z,997.84
2023-02-23T06:29:06.994Z,997.83
2023-02-23T06:30:06.926Z,997.82
2023-02-23T06:31:07.205Z,997.84
2023-02-23T06:32:07.020Z,997.83
2023-02-23T06:33:06.877Z,997.84
2023-02-23T06:34:06.839Z,997.83
2023-02-23T06:35:06.819Z,997.82
2023-02-23T06:36:06.798Z,997.81
2023-02-23T06:37:09.138Z,997.84
2023-02-23T06:38:06.783Z,997.83
2023-02-23T06:39:06.768Z,997.84
2023-02-23T06:40:06.752Z,997.90
2023-02-23T06:41:06.743Z,997.86
2023-02-23T06:42:06.731Z,997.88
2023-02-23T06:43:06.717Z,997.88
2023-02-23T06:44:06.696Z,997.86
2023-02-23T06:45:06.703Z,997.83
2023-02-23T06:46:06.666Z,997.88
2023-02-23T06:47:06.665Z,997.86
2023-02-23T06:48:06.656Z,997.85
2023-02-23T06:49:06.639Z,997.83
2023-02-23T06:50:06.619Z,997.82
2023-02-23T06:51:06.615Z,997.83
2023-02-23T06:52:06.585Z,997.86
2023-02-23T06:53:06.597Z,997.85
2023-02-23T06:54:06.567Z,997.86
2023-02-23T06:55:06.567Z,997.82
2023-02-23T06:56:06.534Z,997.86
2023-02-23T06:57:06.524Z,997.84
2023-02-23T06:58:06.529Z,997.92
2023-02-23T06:59:06.505Z,997.84
2023-02-23T07:00:06.500Z,997.90
2023-02-23T07:01:06.478Z,997.85
2023-02-23T07:02:06.549Z,997.89
2023-02-23T07:03:06.467Z,997.92
2023-02-23T07:04:06.454Z,997.95
2023-02-23T07:05:06.421Z,997.96
2023-02-23T07:06:06.435Z,997.91
2023-02-23T07:07:06.452Z,997.91
2023-02-23T07:08:06.555Z,997.94
2023-02-23T07:09:06.414Z,997.96
2023-02-23T07:10:06.375Z,997.97
2023-02-23T07:11:06.453Z,998.02
2023-02-23T07:12:06.329Z,997.99
2023-02-23T07:13:06.338Z,998.07
2023-02-23T07:14:07.726Z,998.01
2023-02-23T07:15:06.313Z,998.05
2023-02-23T07:16:06.346Z,998.06
2023-02-23T07:17:06.269Z,998.08
2023-02-23T07:18:06.257Z,998.04
2023-02-23T07:19:06.249Z,998.07
2023-02-23T07:20:06.231Z,998.07
2023-02-23T07:21:06.226Z,998.07
2023-02-23T07:22:06.208Z,998.02
2023-02-23T07:23:06.201Z,998.09
2023-02-23T07:24:06.191Z,998.07
2023-02-23T07:25:06.167Z,998.11
2023-02-23T07:26:06.153Z,998.12
2023-02-23T07:27:06.140Z,998.14
2023-02-23T07:28:06.127Z,998.18
2023-02-23T07:29:06.125Z,998.13
2023-02-23T07:30:06.117Z,998.21
2023-02-23T07:31:06.155Z,998.22
2023-02-23T07:32:06.197Z,998.19
2023-02-23T07:33:06.066Z,998.15
2023-02-23T07:34:06.042Z,998.18
2023-02-23T07:35:06.036Z,998.17
2023-02-23T07:36:06.033Z,998.18
2023-02-23T07:37:06.029Z,998.20
2023-02-23T07:38:06.003Z,998.20
2023-02-23T07:39:06.009Z,998.19
2023-02-23T07:40:05.970Z,998.18
2023-02-23T07:41:05.975Z,998.18
2023-02-23T07:42:05.953Z,998.19
2023-02-23T07:43:05.938Z,998.17
2023-02-23T07:44:05.943Z,998.17
2023-02-23T07:45:05.929Z,998.23
2023-02-23T07:46:05.908Z,998.26
2023-02-23T07:47:05.995Z,998.22
2023-02-23T07:48:05.870Z,998.19
2023-02-23T07:49:05.865Z,998.22
2023-02-23T07:50:05.838Z,998.20
2023-02-23T07:51:05.839Z,998.22
2023-02-23T07:52:05.830Z,998.24
2023-02-23T07:53:05.829Z,998.22
2023-02-23T07:54:05.834Z,998.30
2023-02-23T07:55:05.824Z,998.29
2023-02-23T07:56:05.787Z,998.28
2023-02-23T07:57:05.764Z,998.25
2023-02-23T07:58:05.741Z,998.23
2023-02-23T07:59:05.766Z,998.26
2023-02-23T08:00:05.722Z,998.24
2023-02-23T08:01:05.763Z,998.24
2023-02-23T08:02:05.688Z,998.24
2023-02-23T08:03:05.686Z,998.26
2023-02-23T08:04:05.726Z,998.26
2023-02-23T08:05:05.650Z,998.27
2023-02-23T08:06:05.628Z,998.28
2023-02-23T08:07:05.618Z,998.28
2023-02-23T08:08:05.606Z,998.30
2023-02-23T08:09:05.713Z,998.32
2023-02-23T08:10:05.575Z,998.28
2023-02-23T08:11:05.564Z,998.25
2023-02-23T08:12:05.560Z,998.28
2023-02-23T08:13:05.586Z,998.26
2023-02-23T08:14:05.564Z,998.27
2023-02-23T08:15:05.516Z,998.26
2023-02-23T08:16:05.493Z,998.29
2023-02-23T08:17:05.601Z,998.32
2023-02-23T08:18:05.465Z,998.28
2023-02-23T08:19:05.508Z,998.36
2023-02-23T08:20:05.479Z,998.32
2023-02-23T08:21:05.469Z,998.36
2023-02-23T08:22:06.187Z,998.36
2023-02-23T08:23:05.417Z,998.38
2023-02-23T08:24:05.403Z,998.39
2023-02-23T08:25:05.397Z,998.32
2023-02-23T08:26:05.362Z,998.36
2023-02-23T08:27:05.365Z,998.33
2023-02-23T08:28:05.351Z,998.33
2023-02-23T08:29:05.369Z,998.31
2023-02-23T08:30:05.335Z,998.29
2023-02-23T08:31:05.387Z,998.31
2023-02-23T08:32:05.405Z,998.31
2023-02-23T08:33:05.273Z,998.26
2023-02-23T08:34:05.273Z,998.25
2023-02-23T08:35:05.260Z,998.32
2023-02-23T08:36:05.247Z,998.31
2023-02-23T08:37:05.264Z,998.30
2023-02-23T08:38:05.210Z,998.29
2023-02-23T08:39:05.212Z,998.36
2023-02-23T08:40:05.189Z,998.35
2023-02-23T08:41:05.196Z,998.35
2023-02-23T08:42:05.170Z,998.36
2023-02-23T08:43:05.242Z,998.33
2023-02-23T08:44:05.151Z,998.33
2023-02-23T08:45:06.326Z,998.33
2023-02-23T08:46:05.154Z,998.32
2023-02-23T08:47:05.106Z,998.33
2023-02-23T08:48:05.068Z,998.31
2023-02-23T08:49:05.096Z,998.31
2023-02-23T08:50:05.097Z,998.34
2023-02-23T08:51:05.051Z,998.30
2023-02-23T08:52:05.013Z,998.30
2023-02-23T08:53:05.021Z,998.30
2023-02-23T08:54:05.044Z,998.28
2023-02-23T08:55:05.006Z,998.32
2023-02-23T08:56:04.968Z,998.32
2023-02-23T08:57:04.954Z,998.32
2023-02-23T08:58:04.943Z,998.30
2023-02-23T08:59:04.993Z,998.28
2023-02-23T09:00:04.925Z,998.30
2023-02-23T09:01:04.998Z,998.27
2023-02-23T09:02:05.155Z,998.25
2023-02-23T09:03:04.888Z,998.28
2023-02-23T09:04:04.885Z,998.22
2023-02-23T09:05:04.888Z,998.27
2023-02-23T09:06:04.841Z,998.28
2023-02-23T09:07:04.837Z,998.30
2023-02-23T09:08:04.811Z,998.27
2023-02-23T09:09:04.811Z,998.30
2023-02-23T09:10:04.805Z,998.26
2023-02-23T09:11:04.770Z,998.25
2023-02-23T09:12:04.760Z,998.25
2023-02-23T09:13:04.776Z,998.30
2023-02-23T09:14:04.932Z,998.29
2023-02-23T09:15:04.742Z,998.30
2023-02-23T09:16:04.761Z,998.35
2023-02-23T09:17:04.711Z,998.30
2023-02-23T09:18:04.687Z,998.32
2023-02-23T09:19:04.687Z,998.30
2023-02-23T09:20:04.650Z,998.30
2023-02-23T09:21:04.761Z,998.34
2023-02-23T09:22:04.619Z,998.39
2023-02-23T09:23:04.610Z,998.36
2023-02-23T09:24:04.619Z,998.33
2023-02-23T09:25:04.590Z,998.35
2023-02-23T09:26:04.634Z,998.39
2023-02-23T09:27:04.571Z,998.39
2023-02-23T09:28:04.551Z,998.36
2023-02-23T09:29:07.612Z,998.35
2023-02-23T09:30:04.522Z,998.37
2023-02-23T09:31:04.679Z,998.33
2023-02-23T09:32:04.649Z,998.33
2023-02-23T09:33:04.488Z,998.32
2023-02-23T09:34:04.501Z,998.34
2023-02-23T09:35:04.448Z,998.34
2023-02-23T09:36:04.451Z,998.36
2023-02-23T09:37:04.440Z,998.34
2023-02-23T09:38:04.411Z,998.37
2023-02-23T09:39:04.438Z,998.38
2023-02-23T09:40:04.413Z,998.37
2023-02-23T09:41:04.373Z,998.38
2023-02-23T09:42:04.367Z,998.39
2023-02-23T09:43:04.372Z,998.39
2023-02-23T09:44:04.347Z,998.40
2023-02-23T09:45:04.352Z,998.39
2023-02-23T09:46:04.361Z,998.39
2023-02-23T09:47:04.310Z,998.37
2023-02-23T09:48:04.290Z,998.38
2023-02-23T09:49:04.267Z,998.39
2023-02-23T09:50:04.277Z,998.39
2023-02-23T09:51:04.246Z,998.37
2023-02-23T09:52:04.245Z,998.41
2023-02-23T09:53:04.872Z,998.42
2023-02-23T09:54:04.208Z,998.40
2023-02-23T09:55:04.239Z,998.37
2023-02-23T09:56:04.189Z,998.36
2023-02-23T09:57:04.176Z,998.36
2023-02-23T09:58:04.175Z,998.38
2023-02-23T09:59:04.138Z,998.42
2023-02-23T10:00:04.214Z,998.38
2023-02-23T10:01:04.117Z,998.38
2023-02-23T10:02:04.110Z,998.40
2023-02-23T10:03:04.091Z,998.40
2023-02-23T10:04:04.098Z,998.35
2023-02-23T10:05:04.120Z,998.40
2023-02-23T10:06:04.050Z,998.42
2023-02-23T10:07:04.044Z,998.40
2023-02-23T10:08:04.036Z,998.44
2023-02-23T10:09:04.022Z,998.41
2023-02-23T10:10:04.045Z,998.46
2023-02-23T10:11:03.989Z,998.45
2023-02-23T10:12:03.988Z,998.43
2023-02-23T10:13:03.958Z,998.42
2023-02-23T10:14:03.950Z,998.39
2023-02-23T10:15:03.988Z,998.37
2023-02-23T10:16:04.001Z,998.38
2023-02-23T10:17:03.928Z,998.42
2023-02-23T10:18:03.913Z,998.37
2023-02-23T10:19:03.891Z,998.43
2023-02-23T10:20:03.879Z,998.43
2023-02-23T10:21:03.854Z,998.46
2023-02-23T10:22:03.851Z,998.39
2023-02-23T10:23:03.833Z,998.39
2023-02-23T10:24:03.828Z,998.39
2023-02-23T10:25:04.064Z,998.42
2023-02-23T10:26:03.801Z,998.42
2023-02-23T10:27:03.779Z,998.43
2023-02-23T10:28:03.781Z,998.39
2023-02-23T10:29:03.750Z,998.42
2023-02-23T10:30:03.774Z,998.40
2023-02-23T10:31:03.794Z,998.39
2023-02-23T10:32:03.815Z,998.40
2023-02-23T10:33:03.709Z,998.40
2023-02-23T10:34:03.687Z,998.40
2023-02-23T10:35:03.678Z,998.41
2023-02-23T10:36:13.026Z,998.36
2023-02-23T10:37:04.670Z,998.37
2023-02-23T10:38:03.627Z,998.38
2023-02-23T10:39:03.618Z,998.37
2023-02-23T10:40:03.627Z,998.36
2023-02-23T10:41:03.597Z,998.35
2023-02-23T10:42:03.592Z,998.33
2023-02-23T10:43:03.563Z,998.35
2023-02-23T10:44:15.741Z,998.34
2023-02-23T10:45:04.547Z,998.33
2023-02-23T10:46:03.577Z,998.32
2023-02-23T10:47:03.515Z,998.30
2023-02-23T10:48:03.508Z,998.30
2023-02-23T10:49:03.492Z,998.27
2023-02-23T10:50:03.500Z,998.29
2023-02-23T10:51:03.464Z,998.30
2023-02-23T10:52:03.445Z,998.25
2023-02-23T10:53:03.433Z,998.26
2023-02-23T10:54:07.914Z,998.26
2023-02-23T10:55:03.443Z,998.18
2023-02-23T10:56:03.397Z,998.23
2023-02-23T10:57:03.391Z,998.22
2023-02-23T10:58:03.373Z,998.23
2023-02-23T10:59:03.352Z,998.25
2023-02-23T11:00:03.366Z,998.24
2023-02-23T11:01:03.346Z,998.26
2023-02-23T11:02:03.368Z,998.27
2023-02-23T11:03:03.357Z,998.27
2023-02-23T11:04:06.196Z,998.26
2023-02-23T11:05:03.361Z,998.26
2023-02-23T11:06:03.279Z,998.22
2023-02-23T11:07:03.245Z,998.24
2023-02-23T11:08:03.233Z,998.15
2023-02-23T11:09:03.385Z,998.19
2023-02-23T11:10:03.203Z,998.17
2023-02-23T11:11:03.239Z,998.18
2023-02-23T11:12:03.196Z,998.14
2023-02-23T11:13:03.178Z,998.18
2023-02-23T11:14:03.180Z,998.13
2023-02-23T11:15:03.147Z,998.07
2023-02-23T11:16:03.196Z,998.14
2023-02-23T11:17:03.117Z,998.08
2023-02-23T11:18:03.112Z,998.02
2023-02-23T11:19:03.094Z,998.04
2023-02-23T11:20:03.090Z,998.01
2023-02-23T11:21:03.070Z,998.05
2023-02-23T11:22:03.050Z,997.99
2023-02-23T11:23:14.063Z,998.05
2023-02-23T11:24:04.029Z,998.00
2023-02-23T11:25:03.011Z,998.02
2023-02-23T11:26:02.998Z,998.03
2023-02-23T11:27:02.983Z,997.99
2023-02-23T11:28:02.992Z,997.96
2023-02-23T11:29:02.950Z,997.98
2023-02-23T11:30:02.979Z,997.97
2023-02-23T11:31:03.084Z,997.94
2023-02-23T11:32:07.391Z,997.96
2023-02-23T11:33:03.927Z,997.95
2023-02-23T11:34:02.890Z,997.94
2023-02-23T11:35:02.887Z,997.93
2023-02-23T11:36:02.886Z,997.91
2023-02-23T11:37:02.870Z,997.92
2023-02-23T11:38:05.384Z,997.92
2023-02-23T11:39:02.880Z,997.93
2023-02-23T11:40:02.820Z,997.92
2023-02-23T11:41:02.820Z,997.90
2023-02-23T11:42:02.781Z,997.86
2023-02-23T11:43:02.788Z,997.88
2023-02-23T11:44:05.593Z,997.87
2023-02-23T11:45:02.772Z,997.87
2023-02-23T11:46:02.794Z,997.86
2023-02-23T11:47:02.784Z,997.81
2023-02-23T11:48:02.712Z,997.82
2023-02-23T11:49:02.693Z,997.80
2023-02-23T11:50:02.683Z,997.84
2023-02-23T11:51:02.678Z,997.84
2023-02-23T11:52:02.655Z,997.81
2023-02-23T11:53:02.665Z,997.82
2023-02-23T11:54:04.627Z,997.78
2023-02-23T11:55:02.635Z,997.78
2023-02-23T11:56:02.646Z,997.77
2023-02-23T11:57:02.739Z,997.78
2023-02-23T11:58:02.583Z,997.74
2023-02-23T11:59:02.562Z,997.72
2023-02-23T12:00:02.558Z,997.74
2023-02-23T12:01:02.563Z,997.73
2023-02-23T12:02:02.545Z,997.69
2023-02-23T12:03:02.590Z,997.71
2023-02-23T12:04:02.506Z,997.68
2023-02-23T12:05:02.529Z,997.66
2023-02-23T12:06:02.529Z,997.69
2023-02-23T12:07:02.474Z,997.71
2023-02-23T12:08:02.514Z,997.65
2023-02-23T12:09:02.432Z,997.67
2023-02-23T12:10:02.440Z,997.68
2023-02-23T12:11:02.416Z,997.72
2023-02-23T12:12:02.423Z,997.70
2023-02-23T12:13:02.384Z,997.68
2023-02-23T12:14:02.385Z,997.66
2023-02-23T12:15:02.353Z,997.66
2023-02-23T12:16:02.414Z,997.70
2023-02-23T12:17:04.257Z,997.71
2023-02-23T12:18:02.336Z,997.65
2023-02-23T12:19:02.302Z,997.65
2023-02-23T12:20:02.304Z,997.63
2023-02-23T12:21:02.283Z,997.68
2023-02-23T12:22:02.293Z,997.64
2023-02-23T12:23:02.244Z,997.68
2023-02-23T12:24:02.243Z,997.69
2023-02-23T12:25:02.240Z,997.67
2023-02-23T12:26:02.214Z,997.65
2023-02-23T12:27:02.216Z,997.62
2023-02-23T12:28:16.910Z,997.67